sensor_id;sensor_type;location;lat;lon;timestamp;P1;durP1;ratioP1;P2;durP2;ratioP2
72273;SDS011;60208;48.692;8.948;2023-07-22T00:02:14;4.90;;;2.80;;
72273;SDS011;60208;48.692;8.948;2023-07-22T00:04:40;3.25;;;2.53;;
72273;SDS011;60208;48.692;8.948;2023-07-22T00:07:05;5.68;;;3.03;;
72273;SDS011;60208;48.692;8.948;2023-07-22T00:09:34;4.22;;;2.80;;
72273;SDS011;60208;48.692;8.948;2023-07-22T00:11:59;5.88;;;2.92;;
72273;SDS011;60208;48.692;8.948;2023-07-22T00:14:25;4.35;;;2.97;;
72273;SDS011;60208;48.692;8.948;2023-07-22T00:16:50;4.28;;;2.95;;
72273;SDS011;60208;48.692;8.948;2023-07-22T00:19:15;3.90;;;3.28;;
72273;SDS011;60208;48.692;8.948;2023-07-22T00:21:41;3.97;;;2.75;;
72273;SDS011;60208;48.692;8.948;2023-07-22T00:24:07;4.72;;;2.75;;
72273;SDS011;60208;48.692;8.948;2023-07-22T00:26:32;7.50;;;3.15;;
72273;SDS011;60208;48.692;8.948;2023-07-22T00:28:58;4.03;;;3.40;;
72273;SDS011;60208;48.692;8.948;2023-07-22T00:31:23;3.70;;;3.28;;
72273;SDS011;60208;48.692;8.948;2023-07-22T00:33:49;3.72;;;2.85;;
72273;SDS011;60208;48.692;8.948;2023-07-22T00:36:14;4.65;;;3.10;;
72273;SDS011;60208;48.692;8.948;2023-07-22T00:38:40;4.18;;;3.10;;
72273;SDS011;60208;48.692;8.948;2023-07-22T00:41:05;4.75;;;3.20;;
72273;SDS011;60208;48.692;8.948;2023-07-22T00:43:32;6.55;;;3.38;;
72273;SDS011;60208;48.692;8.948;2023-07-22T00:45:57;5.63;;;3.33;;
72273;SDS011;60208;48.692;8.948;2023-07-22T00:48:23;5.55;;;3.75;;
72273;SDS011;60208;48.692;8.948;2023-07-22T00:50:49;6.28;;;3.70;;
72273;SDS011;60208;48.692;8.948;2023-07-22T00:53:14;6.13;;;3.78;;
72273;SDS011;60208;48.692;8.948;2023-07-22T00:55:40;4.82;;;3.22;;
72273;SDS011;60208;48.692;8.948;2023-07-22T00:58:08;5.72;;;3.40;;
72273;SDS011;60208;48.692;8.948;2023-07-22T01:00:33;4.35;;;3.30;;
72273;SDS011;60208;48.692;8.948;2023-07-22T01:02:59;5.35;;;3.40;;
72273;SDS011;60208;48.692;8.948;2023-07-22T01:05:25;4.60;;;3.58;;
72273;SDS011;60208;48.692;8.948;2023-07-22T01:07:51;5.95;;;3.47;;
72273;SDS011;60208;48.692;8.948;2023-07-22T01:10:17;4.68;;;3.42;;
72273;SDS011;60208;48.692;8.948;2023-07-22T01:12:44;4.43;;;3.72;;
72273;SDS011;60208;48.692;8.948;2023-07-22T01:15:09;9.88;;;3.90;;
72273;SDS011;60208;48.692;8.948;2023-07-22T01:17:36;5.22;;;3.40;;
72273;SDS011;60208;48.692;8.948;2023-07-22T01:20:02;5.90;;;4.20;;
72273;SDS011;60208;48.692;8.948;2023-07-22T01:22:28;5.13;;;4.63;;
72273;SDS011;60208;48.692;8.948;2023-07-22T01:24:54;5.97;;;4.00;;
72273;SDS011;60208;48.692;8.948;2023-07-22T01:27:21;5.80;;;4.30;;
72273;SDS011;60208;48.692;8.948;2023-07-22T01:29:46;4.05;;;3.38;;
72273;SDS011;60208;48.692;8.948;2023-07-22T01:32:11;7.75;;;3.60;;
72273;SDS011;60208;48.692;8.948;2023-07-22T01:34:37;5.00;;;3.70;;
72273;SDS011;60208;48.692;8.948;2023-07-22T01:37:02;6.03;;;3.85;;
72273;SDS011;60208;48.692;8.948;2023-07-22T01:39:29;6.05;;;3.90;;
72273;SDS011;60208;48.692;8.948;2023-07-22T01:41:55;4.53;;;3.75;;
72273;SDS011;60208;48.692;8.948;2023-07-22T01:44:20;5.78;;;3.92;;
72273;SDS011;60208;48.692;8.948;2023-07-22T01:46:45;8.43;;;3.90;;
72273;SDS011;60208;48.692;8.948;2023-07-22T01:49:11;6.80;;;3.78;;
72273;SDS011;60208;48.692;8.948;2023-07-22T01:51:40;6.18;;;3.70;;
72273;SDS011;60208;48.692;8.948;2023-07-22T01:54:05;4.05;;;3.65;;
72273;SDS011;60208;48.692;8.948;2023-07-22T01:56:31;7.25;;;4.00;;
72273;SDS011;60208;48.692;8.948;2023-07-22T01:58:56;6.75;;;3.88;;
72273;SDS011;60208;48.692;8.948;2023-07-22T02:01:21;4.10;;;3.70;;
72273;SDS011;60208;48.692;8.948;2023-07-22T02:03:47;8.45;;;4.15;;
72273;SDS011;60208;48.692;8.948;2023-07-22T02:06:12;4.75;;;3.80;;
72273;SDS011;60208;48.692;8.948;2023-07-22T02:08:38;6.70;;;3.70;;
72273;SDS011;60208;48.692;8.948;2023-07-22T02:11:04;6.13;;;3.97;;
72273;SDS011;60208;48.692;8.948;2023-07-22T02:13:31;4.68;;;3.67;;
72273;SDS011;60208;48.692;8.948;2023-07-22T02:15:57;7.60;;;3.70;;
72273;SDS011;60208;48.692;8.948;2023-07-22T02:18:24;3.88;;;3.47;;
72273;SDS011;60208;48.692;8.948;2023-07-22T02:20:49;5.18;;;3.80;;
72273;SDS011;60208;48.692;8.948;2023-07-22T02:23:15;5.07;;;3.70;;
72273;SDS011;60208;48.692;8.948;2023-07-22T02:25:40;4.38;;;3.70;;
72273;SDS011;60208;48.692;8.948;2023-07-22T02:28:05;4.18;;;3.55;;
72273;SDS011;60208;48.692;8.948;2023-07-22T02:30:33;7.00;;;3.33;;
72273;SDS011;60208;48.692;8.948;2023-07-22T02:33:02;5.38;;;3.50;;
72273;SDS011;60208;48.692;8.948;2023-07-22T02:35:28;5.50;;;3.80;;
72273;SDS011;60208;48.692;8.948;2023-07-22T02:37:53;6.22;;;4.00;;
72273;SDS011;60208;48.692;8.948;2023-07-22T02:40:19;5.35;;;3.80;;
72273;SDS011;60208;48.692;8.948;2023-07-22T02:42:44;6.38;;;3.97;;
72273;SDS011;60208;48.692;8.948;2023-07-22T02:45:10;5.55;;;4.00;;
72273;SDS011;60208;48.692;8.948;2023-07-22T02:47:35;7.60;;;3.75;;
72273;SDS011;60208;48.692;8.948;2023-07-22T02:50:01;6.57;;;3.35;;
72273;SDS011;60208;48.692;8.948;2023-07-22T02:52:27;5.53;;;3.55;;
72273;SDS011;60208;48.692;8.948;2023-07-22T02:55:08;4.63;;;3.28;;
72273;SDS011;60208;48.692;8.948;2023-07-22T02:57:38;6.43;;;3.63;;
72273;SDS011;60208;48.692;8.948;2023-07-22T03:00:04;6.82;;;3.70;;
72273;SDS011;60208;48.692;8.948;2023-07-22T03:02:37;5.05;;;3.42;;
72273;SDS011;60208;48.692;8.948;2023-07-22T03:05:06;3.95;;;3.55;;
72273;SDS011;60208;48.692;8.948;2023-07-22T03:07:36;6.47;;;3.50;;
72273;SDS011;60208;48.692;8.948;2023-07-22T03:10:06;7.82;;;3.95;;
72273;SDS011;60208;48.692;8.948;2023-07-22T03:12:32;4.30;;;3.60;;
72273;SDS011;60208;48.692;8.948;2023-07-22T03:14:58;4.03;;;3.58;;
72273;SDS011;60208;48.692;8.948;2023-07-22T03:17:24;7.43;;;3.83;;
72273;SDS011;60208;48.692;8.948;2023-07-22T03:19:49;4.70;;;3.95;;
72273;SDS011;60208;48.692;8.948;2023-07-22T03:22:16;4.63;;;3.78;;
72273;SDS011;60208;48.692;8.948;2023-07-22T03:24:42;7.30;;;3.72;;
72273;SDS011;60208;48.692;8.948;2023-07-22T03:27:07;4.88;;;3.95;;
72273;SDS011;60208;48.692;8.948;2023-07-22T03:29:33;4.22;;;3.67;;
72273;SDS011;60208;48.692;8.948;2023-07-22T03:31:58;6.63;;;4.05;;
72273;SDS011;60208;48.692;8.948;2023-07-22T03:34:25;5.38;;;3.42;;
72273;SDS011;60208;48.692;8.948;2023-07-22T03:36:51;4.47;;;3.70;;
72273;SDS011;60208;48.692;8.948;2023-07-22T03:39:17;5.35;;;3.63;;
72273;SDS011;60208;48.692;8.948;2023-07-22T03:41:42;6.30;;;3.50;;
72273;SDS011;60208;48.692;8.948;2023-07-22T03:44:08;4.70;;;3.58;;
72273;SDS011;60208;48.692;8.948;2023-07-22T03:46:33;4.90;;;3.90;;
72273;SDS011;60208;48.692;8.948;2023-07-22T03:48:58;5.85;;;3.53;;
72273;SDS011;60208;48.692;8.948;2023-07-22T03:51:24;4.95;;;4.00;;
72273;SDS011;60208;48.692;8.948;2023-07-22T03:53:49;5.57;;;3.45;;
72273;SDS011;60208;48.692;8.948;2023-07-22T03:56:14;4.28;;;3.85;;
72273;SDS011;60208;48.692;8.948;2023-07-22T03:58:40;5.95;;;4.05;;
72273;SDS011;60208;48.692;8.948;2023-07-22T04:01:05;6.40;;;3.70;;
72273;SDS011;60208;48.692;8.948;2023-07-22T04:03:31;5.53;;;4.10;;
72273;SDS011;60208;48.692;8.948;2023-07-22T04:05:56;6.60;;;4.20;;
72273;SDS011;60208;48.692;8.948;2023-07-22T04:08:22;6.85;;;3.60;;
72273;SDS011;60208;48.692;8.948;2023-07-22T04:10:54;5.80;;;4.03;;
72273;SDS011;60208;48.692;8.948;2023-07-22T04:13:20;5.47;;;3.70;;
72273;SDS011;60208;48.692;8.948;2023-07-22T04:15:46;5.88;;;4.00;;
72273;SDS011;60208;48.692;8.948;2023-07-22T04:18:12;5.22;;;3.83;;
72273;SDS011;60208;48.692;8.948;2023-07-22T04:20:39;4.00;;;3.60;;
72273;SDS011;60208;48.692;8.948;2023-07-22T04:23:05;4.90;;;3.75;;
72273;SDS011;60208;48.692;8.948;2023-07-22T04:25:30;5.80;;;3.53;;
72273;SDS011;60208;48.692;8.948;2023-07-22T04:27:55;6.07;;;3.83;;
72273;SDS011;60208;48.692;8.948;2023-07-22T04:30:21;3.50;;;3.15;;
72273;SDS011;60208;48.692;8.948;2023-07-22T04:32:47;4.80;;;4.20;;
72273;SDS011;60208;48.692;8.948;2023-07-22T04:35:14;4.80;;;3.78;;
72273;SDS011;60208;48.692;8.948;2023-07-22T04:37:42;5.22;;;3.97;;
72273;SDS011;60208;48.692;8.948;2023-07-22T04:40:07;3.90;;;3.13;;
72273;SDS011;60208;48.692;8.948;2023-07-22T04:42:36;4.30;;;3.38;;
72273;SDS011;60208;48.692;8.948;2023-07-22T04:45:02;5.68;;;3.55;;
72273;SDS011;60208;48.692;8.948;2023-07-22T04:47:28;4.15;;;3.50;;
72273;SDS011;60208;48.692;8.948;2023-07-22T04:49:53;4.55;;;3.88;;
72273;SDS011;60208;48.692;8.948;2023-07-22T04:52:18;5.20;;;3.70;;
72273;SDS011;60208;48.692;8.948;2023-07-22T04:54:44;4.18;;;3.53;;
72273;SDS011;60208;48.692;8.948;2023-07-22T04:57:12;3.70;;;3.40;;
72273;SDS011;60208;48.692;8.948;2023-07-22T04:59:37;5.72;;;3.58;;
72273;SDS011;60208;48.692;8.948;2023-07-22T05:02:03;4.65;;;3.45;;
72273;SDS011;60208;48.692;8.948;2023-07-22T05:04:29;6.25;;;3.95;;
72273;SDS011;60208;48.692;8.948;2023-07-22T05:06:54;4.30;;;3.47;;
72273;SDS011;60208;48.692;8.948;2023-07-22T05:09:20;5.45;;;3.53;;
72273;SDS011;60208;48.692;8.948;2023-07-22T05:11:45;6.47;;;3.40;;
72273;SDS011;60208;48.692;8.948;2023-07-22T05:14:11;6.95;;;3.67;;
72273;SDS011;60208;48.692;8.948;2023-07-22T05:16:36;3.72;;;3.30;;
72273;SDS011;60208;48.692;8.948;2023-07-22T05:19:01;4.07;;;3.60;;
72273;SDS011;60208;48.692;8.948;2023-07-22T05:21:27;6.40;;;3.60;;
72273;SDS011;60208;48.692;8.948;2023-07-22T05:23:52;5.75;;;3.40;;
72273;SDS011;60208;48.692;8.948;2023-07-22T05:26:18;5.05;;;3.50;;
72273;SDS011;60208;48.692;8.948;2023-07-22T05:28:43;5.40;;;3.50;;
72273;SDS011;60208;48.692;8.948;2023-07-22T05:31:08;5.45;;;2.95;;
72273;SDS011;60208;48.692;8.948;2023-07-22T05:33:34;3.83;;;3.20;;
72273;SDS011;60208;48.692;8.948;2023-07-22T05:35:59;5.20;;;3.10;;
72273;SDS011;60208;48.692;8.948;2023-07-22T05:38:25;5.95;;;3.55;;
72273;SDS011;60208;48.692;8.948;2023-07-22T05:40:51;4.47;;;3.40;;
72273;SDS011;60208;48.692;8.948;2023-07-22T05:43:18;4.53;;;3.30;;
72273;SDS011;60208;48.692;8.948;2023-07-22T05:45:43;4.47;;;3.10;;
72273;SDS011;60208;48.692;8.948;2023-07-22T05:48:08;3.08;;;2.78;;
72273;SDS011;60208;48.692;8.948;2023-07-22T05:50:34;4.32;;;3.35;;
72273;SDS011;60208;48.692;8.948;2023-07-22T05:52:59;5.05;;;3.00;;
72273;SDS011;60208;48.692;8.948;2023-07-22T05:55:24;5.38;;;2.80;;
72273;SDS011;60208;48.692;8.948;2023-07-22T05:57:51;4.28;;;2.97;;
72273;SDS011;60208;48.692;8.948;2023-07-22T06:00:17;3.70;;;2.60;;
72273;SDS011;60208;48.692;8.948;2023-07-22T06:02:42;3.83;;;3.10;;
72273;SDS011;60208;48.692;8.948;2023-07-22T06:05:08;3.88;;;3.00;;
72273;SDS011;60208;48.692;8.948;2023-07-22T06:07:33;5.47;;;2.90;;
72273;SDS011;60208;48.692;8.948;2023-07-22T06:09:59;5.13;;;3.00;;
72273;SDS011;60208;48.692;8.948;2023-07-22T06:12:24;3.60;;;2.65;;
72273;SDS011;60208;48.692;8.948;2023-07-22T06:14:49;6.57;;;2.92;;
72273;SDS011;60208;48.692;8.948;2023-07-22T06:17:15;3.55;;;2.65;;
72273;SDS011;60208;48.692;8.948;2023-07-22T06:19:40;8.10;;;3.05;;
72273;SDS011;60208;48.692;8.948;2023-07-22T06:22:06;3.83;;;2.80;;
72273;SDS011;60208;48.692;8.948;2023-07-22T06:24:31;4.85;;;2.90;;
72273;SDS011;60208;48.692;8.948;2023-07-22T06:26:56;3.42;;;2.70;;
72273;SDS011;60208;48.692;8.948;2023-07-22T06:29:22;3.72;;;2.70;;
72273;SDS011;60208;48.692;8.948;2023-07-22T06:31:47;3.55;;;2.60;;
72273;SDS011;60208;48.692;8.948;2023-07-22T06:34:12;3.40;;;2.45;;
72273;SDS011;60208;48.692;8.948;2023-07-22T06:36:38;3.55;;;2.50;;
72273;SDS011;60208;48.692;8.948;2023-07-22T06:39:03;2.65;;;2.45;;
72273;SDS011;60208;48.692;8.948;2023-07-22T06:41:29;3.53;;;2.50;;
72273;SDS011;60208;48.692;8.948;2023-07-22T06:43:54;4.32;;;2.88;;
72273;SDS011;60208;48.692;8.948;2023-07-22T06:46:20;3.55;;;2.60;;
72273;SDS011;60208;48.692;8.948;2023-07-22T06:48:46;5.50;;;3.05;;
72273;SDS011;60208;48.692;8.948;2023-07-22T06:51:12;5.30;;;2.78;;
72273;SDS011;60208;48.692;8.948;2023-07-22T06:53:37;3.13;;;2.47;;
72273;SDS011;60208;48.692;8.948;2023-07-22T06:56:03;3.38;;;2.55;;
72273;SDS011;60208;48.692;8.948;2023-07-22T06:58:29;3.70;;;2.42;;
72273;SDS011;60208;48.692;8.948;2023-07-22T07:00:55;4.13;;;2.40;;
72273;SDS011;60208;48.692;8.948;2023-07-22T07:03:21;4.00;;;2.70;;
72273;SDS011;60208;48.692;8.948;2023-07-22T07:05:55;4.45;;;2.60;;
72273;SDS011;60208;48.692;8.948;2023-07-22T07:08:21;5.30;;;2.80;;
72273;SDS011;60208;48.692;8.948;2023-07-22T07:10:47;3.20;;;2.40;;
72273;SDS011;60208;48.692;8.948;2023-07-22T07:13:12;3.50;;;2.45;;
72273;SDS011;60208;48.692;8.948;2023-07-22T07:15:38;4.47;;;2.50;;
72273;SDS011;60208;48.692;8.948;2023-07-22T07:18:03;3.65;;;2.40;;
72273;SDS011;60208;48.692;8.948;2023-07-22T07:20:30;2.70;;;2.28;;
72273;SDS011;60208;48.692;8.948;2023-07-22T07:22:55;5.70;;;2.60;;
72273;SDS011;60208;48.692;8.948;2023-07-22T07:25:21;2.95;;;2.20;;
72273;SDS011;60208;48.692;8.948;2023-07-22T07:27:46;3.78;;;2.40;;
72273;SDS011;60208;48.692;8.948;2023-07-22T07:30:12;2.63;;;1.88;;
72273;SDS011;60208;48.692;8.948;2023-07-22T07:32:37;2.50;;;2.20;;
72273;SDS011;60208;48.692;8.948;2023-07-22T07:35:03;2.80;;;2.08;;
72273;SDS011;60208;48.692;8.948;2023-07-22T07:37:29;3.90;;;2.05;;
72273;SDS011;60208;48.692;8.948;2023-07-22T07:39:54;3.67;;;2.10;;
72273;SDS011;60208;48.692;8.948;2023-07-22T07:42:24;2.85;;;2.13;;
72273;SDS011;60208;48.692;8.948;2023-07-22T07:44:52;2.88;;;2.13;;
72273;SDS011;60208;48.692;8.948;2023-07-22T07:47:18;2.72;;;2.28;;
72273;SDS011;60208;48.692;8.948;2023-07-22T07:49:43;2.05;;;1.85;;
72273;SDS011;60208;48.692;8.948;2023-07-22T07:52:09;2.47;;;1.95;;
72273;SDS011;60208;48.692;8.948;2023-07-22T07:54:35;2.63;;;1.92;;
72273;SDS011;60208;48.692;8.948;2023-07-22T07:57:00;1.73;;;1.52;;
72273;SDS011;60208;48.692;8.948;2023-07-22T07:59:25;2.42;;;1.63;;
72273;SDS011;60208;48.692;8.948;2023-07-22T08:01:51;3.20;;;1.80;;
72273;SDS011;60208;48.692;8.948;2023-07-22T08:04:16;2.42;;;1.70;;
72273;SDS011;60208;48.692;8.948;2023-07-22T08:06:42;3.65;;;1.60;;
72273;SDS011;60208;48.692;8.948;2023-07-22T08:09:08;2.80;;;1.60;;
72273;SDS011;60208;48.692;8.948;2023-07-22T08:11:35;1.85;;;1.60;;
72273;SDS011;60208;48.692;8.948;2023-07-22T08:14:03;1.98;;;1.50;;
72273;SDS011;60208;48.692;8.948;2023-07-22T08:16:30;3.38;;;1.50;;
72273;SDS011;60208;48.692;8.948;2023-07-22T08:18:55;2.78;;;1.45;;
72273;SDS011;60208;48.692;8.948;2023-07-22T08:21:21;2.22;;;1.40;;
72273;SDS011;60208;48.692;8.948;2023-07-22T08:23:46;2.95;;;1.30;;
72273;SDS011;60208;48.692;8.948;2023-07-22T08:26:12;1.55;;;1.30;;
72273;SDS011;60208;48.692;8.948;2023-07-22T08:28:38;1.65;;;1.40;;
72273;SDS011;60208;48.692;8.948;2023-07-22T08:31:03;2.83;;;1.20;;
72273;SDS011;60208;48.692;8.948;2023-07-22T08:33:29;1.55;;;1.25;;
72273;SDS011;60208;48.692;8.948;2023-07-22T08:35:55;2.00;;;1.58;;
72273;SDS011;60208;48.692;8.948;2023-07-22T08:38:20;1.50;;;1.38;;
72273;SDS011;60208;48.692;8.948;2023-07-22T08:40:48;1.70;;;1.20;;
72273;SDS011;60208;48.692;8.948;2023-07-22T08:43:19;1.85;;;1.20;;
72273;SDS011;60208;48.692;8.948;2023-07-22T08:45:45;1.48;;;1.27;;
72273;SDS011;60208;48.692;8.948;2023-07-22T08:48:12;1.33;;;1.08;;
72273;SDS011;60208;48.692;8.948;2023-07-22T08:50:52;4.35;;;1.30;;
72273;SDS011;60208;48.692;8.948;2023-07-22T08:53:18;1.77;;;1.27;;
72273;SDS011;60208;48.692;8.948;2023-07-22T08:55:48;1.40;;;1.30;;
72273;SDS011;60208;48.692;8.948;2023-07-22T08:58:14;1.27;;;1.10;;
72273;SDS011;60208;48.692;8.948;2023-07-22T09:00:39;2.05;;;1.30;;
72273;SDS011;60208;48.692;8.948;2023-07-22T09:03:05;1.88;;;1.13;;
72273;SDS011;60208;48.692;8.948;2023-07-22T09:05:31;1.45;;;1.35;;
72273;SDS011;60208;48.692;8.948;2023-07-22T09:08:01;1.70;;;1.20;;
72273;SDS011;60208;48.692;8.948;2023-07-22T09:10:28;1.63;;;1.20;;
72273;SDS011;60208;48.692;8.948;2023-07-22T09:12:54;2.53;;;1.20;;
72273;SDS011;60208;48.692;8.948;2023-07-22T09:15:19;2.05;;;1.20;;
72273;SDS011;60208;48.692;8.948;2023-07-22T09:17:45;2.47;;;1.40;;
72273;SDS011;60208;48.692;8.948;2023-07-22T09:20:12;1.65;;;1.25;;
72273;SDS011;60208;48.692;8.948;2023-07-22T09:22:44;1.30;;;1.20;;
72273;SDS011;60208;48.692;8.948;2023-07-22T09:27:41;2.92;;;1.40;;
72273;SDS011;60208;48.692;8.948;2023-07-22T09:30:26;1.38;;;1.00;;
72273;SDS011;60208;48.692;8.948;2023-07-22T09:32:54;1.48;;;1.15;;
72273;SDS011;60208;48.692;8.948;2023-07-22T09:35:21;3.88;;;1.25;;
72273;SDS011;60208;48.692;8.948;2023-07-22T09:37:47;1.80;;;1.25;;
72273;SDS011;60208;48.692;8.948;2023-07-22T09:40:19;1.55;;;1.40;;
72273;SDS011;60208;48.692;8.948;2023-07-22T09:42:46;2.15;;;1.00;;
72273;SDS011;60208;48.692;8.948;2023-07-22T09:45:17;1.92;;;1.30;;
72273;SDS011;60208;48.692;8.948;2023-07-22T09:47:43;1.75;;;1.38;;
72273;SDS011;60208;48.692;8.948;2023-07-22T09:50:11;1.70;;;1.38;;
72273;SDS011;60208;48.692;8.948;2023-07-22T09:52:42;1.63;;;1.25;;
72273;SDS011;60208;48.692;8.948;2023-07-22T09:55:21;1.83;;;1.20;;
72273;SDS011;60208;48.692;8.948;2023-07-22T09:57:52;1.63;;;1.25;;
72273;SDS011;60208;48.692;8.948;2023-07-22T10:00:18;2.20;;;1.30;;
72273;SDS011;60208;48.692;8.948;2023-07-22T10:02:47;3.15;;;1.33;;
72273;SDS011;60208;48.692;8.948;2023-07-22T10:05:18;2.05;;;1.25;;
72273;SDS011;60208;48.692;8.948;2023-07-22T10:07:48;1.40;;;1.17;;
72273;SDS011;60208;48.692;8.948;2023-07-22T10:10:16;1.80;;;1.30;;
72273;SDS011;60208;48.692;8.948;2023-07-22T10:12:42;1.17;;;1.10;;
72273;SDS011;60208;48.692;8.948;2023-07-22T10:15:09;1.30;;;1.15;;
72273;SDS011;60208;48.692;8.948;2023-07-22T10:17:36;1.27;;;1.17;;
72273;SDS011;60208;48.692;8.948;2023-07-22T10:20:02;1.58;;;1.15;;
72273;SDS011;60208;48.692;8.948;2023-07-22T10:22:35;1.73;;;1.40;;
72273;SDS011;60208;48.692;8.948;2023-07-22T10:25:05;2.85;;;1.60;;
72273;SDS011;60208;48.692;8.948;2023-07-22T10:27:32;1.35;;;1.25;;
72273;SDS011;60208;48.692;8.948;2023-07-22T10:29:59;1.52;;;1.27;;
72273;SDS011;60208;48.692;8.948;2023-07-22T10:32:30;1.38;;;1.20;;
72273;SDS011;60208;48.692;8.948;2023-07-22T10:35:00;1.10;;;1.00;;
72273;SDS011;60208;48.692;8.948;2023-07-22T10:37:29;1.85;;;1.20;;
72273;SDS011;60208;48.692;8.948;2023-07-22T10:40:00;1.20;;;1.10;;
72273;SDS011;60208;48.692;8.948;2023-07-22T10:50:39;2.15;;;1.30;;
72273;SDS011;60208;48.692;8.948;2023-07-22T10:53:11;4.88;;;1.40;;
72273;SDS011;60208;48.692;8.948;2023-07-22T11:09:32;1.88;;;1.50;;
72273;SDS011;60208;48.692;8.948;2023-07-22T11:17:40;1.85;;;1.27;;
72273;SDS011;60208;48.692;8.948;2023-07-22T11:20:05;1.50;;;1.30;;
72273;SDS011;60208;48.692;8.948;2023-07-22T11:22:31;2.97;;;1.30;;
72273;SDS011;60208;48.692;8.948;2023-07-22T11:24:57;2.38;;;1.20;;
72273;SDS011;60208;48.692;8.948;2023-07-22T11:27:25;1.73;;;1.40;;
72273;SDS011;60208;48.692;8.948;2023-07-22T11:29:51;1.65;;;1.40;;
72273;SDS011;60208;48.692;8.948;2023-07-22T11:32:17;1.25;;;1.15;;
72273;SDS011;60208;48.692;8.948;2023-07-22T11:34:44;1.50;;;1.20;;
72273;SDS011;60208;48.692;8.948;2023-07-22T11:37:10;1.52;;;1.30;;
72273;SDS011;60208;48.692;8.948;2023-07-22T11:39:35;2.47;;;1.30;;
72273;SDS011;60208;48.692;8.948;2023-07-22T11:42:03;1.67;;;1.23;;
72273;SDS011;60208;48.692;8.948;2023-07-22T11:44:29;1.50;;;1.15;;
72273;SDS011;60208;48.692;8.948;2023-07-22T11:46:59;1.90;;;1.17;;
72273;SDS011;60208;48.692;8.948;2023-07-22T11:49:34;1.80;;;1.20;;
72273;SDS011;60208;48.692;8.948;2023-07-22T11:52:02;3.13;;;1.30;;
72273;SDS011;60208;48.692;8.948;2023-07-22T11:54:29;2.53;;;1.25;;
72273;SDS011;60208;48.692;8.948;2023-07-22T11:56:55;1.40;;;1.30;;
72273;SDS011;60208;48.692;8.948;2023-07-22T11:59:37;1.70;;;1.20;;
72273;SDS011;60208;48.692;8.948;2023-07-22T12:02:04;1.48;;;1.35;;
72273;SDS011;60208;48.692;8.948;2023-07-22T12:04:31;1.38;;;1.25;;
72273;SDS011;60208;48.692;8.948;2023-07-22T12:06:57;1.27;;;1.10;;
72273;SDS011;60208;48.692;8.948;2023-07-22T12:09:23;2.70;;;1.60;;
72273;SDS011;60208;48.692;8.948;2023-07-22T12:11:49;1.48;;;1.35;;
72273;SDS011;60208;48.692;8.948;2023-07-22T12:14:20;1.43;;;1.20;;
72273;SDS011;60208;48.692;8.948;2023-07-22T12:16:46;2.00;;;1.70;;
72273;SDS011;60208;48.692;8.948;2023-07-22T12:19:11;1.75;;;1.50;;
72273;SDS011;60208;48.692;8.948;2023-07-22T12:21:36;1.33;;;1.23;;
72273;SDS011;60208;48.692;8.948;2023-07-22T12:24:02;1.60;;;1.50;;
72273;SDS011;60208;48.692;8.948;2023-07-22T12:26:29;1.45;;;1.35;;
72273;SDS011;60208;48.692;8.948;2023-07-22T12:28:55;1.88;;;1.50;;
72273;SDS011;60208;48.692;8.948;2023-07-22T12:31:20;1.60;;;1.27;;
72273;SDS011;60208;48.692;8.948;2023-07-22T12:33:46;3.28;;;1.70;;
72273;SDS011;60208;48.692;8.948;2023-07-22T12:36:11;2.78;;;1.80;;
72273;SDS011;60208;48.692;8.948;2023-07-22T12:38:37;4.53;;;1.58;;
72273;SDS011;60208;48.692;8.948;2023-07-22T12:41:02;2.58;;;1.40;;
72273;SDS011;60208;48.692;8.948;2023-07-22T12:43:28;1.88;;;1.50;;
72273;SDS011;60208;48.692;8.948;2023-07-22T12:45:54;2.35;;;1.73;;
72273;SDS011;60208;48.692;8.948;2023-07-22T12:48:19;2.28;;;1.50;;
72273;SDS011;60208;48.692;8.948;2023-07-22T12:50:45;3.35;;;1.63;;
72273;SDS011;60208;48.692;8.948;2023-07-22T12:53:12;2.33;;;1.75;;
72273;SDS011;60208;48.692;8.948;2023-07-22T12:55:38;2.67;;;1.70;;
72273;SDS011;60208;48.692;8.948;2023-07-22T12:58:03;2.15;;;1.70;;
72273;SDS011;60208;48.692;8.948;2023-07-22T13:00:29;4.20;;;1.75;;
72273;SDS011;60208;48.692;8.948;2023-07-22T13:02:54;2.63;;;1.88;;
72273;SDS011;60208;48.692;8.948;2023-07-22T13:05:21;2.15;;;1.75;;
72273;SDS011;60208;48.692;8.948;2023-07-22T13:07:47;2.28;;;1.70;;
72273;SDS011;60208;48.692;8.948;2023-07-22T13:10:12;2.25;;;1.80;;
72273;SDS011;60208;48.692;8.948;2023-07-22T13:12:41;2.28;;;1.80;;
72273;SDS011;60208;48.692;8.948;2023-07-22T13:15:07;3.97;;;2.00;;
72273;SDS011;60208;48.692;8.948;2023-07-22T13:17:33;2.15;;;1.95;;
72273;SDS011;60208;48.692;8.948;2023-07-22T13:19:58;2.33;;;2.13;;
72273;SDS011;60208;48.692;8.948;2023-07-22T13:22:23;2.63;;;1.80;;
72273;SDS011;60208;48.692;8.948;2023-07-22T13:24:49;2.80;;;2.10;;
72273;SDS011;60208;48.692;8.948;2023-07-22T13:27:15;2.03;;;1.83;;
72273;SDS011;60208;48.692;8.948;2023-07-22T13:29:40;2.50;;;1.85;;
72273;SDS011;60208;48.692;8.948;2023-07-22T13:32:06;3.95;;;1.80;;
72273;SDS011;60208;48.692;8.948;2023-07-22T13:34:32;2.00;;;1.88;;
72273;SDS011;60208;48.692;8.948;2023-07-22T13:36:57;3.15;;;1.90;;
72273;SDS011;60208;48.692;8.948;2023-07-22T13:39:23;2.40;;;2.20;;
72273;SDS011;60208;48.692;8.948;2023-07-22T13:41:48;3.45;;;2.03;;
72273;SDS011;60208;48.692;8.948;2023-07-22T13:44:15;2.38;;;1.90;;
72273;SDS011;60208;48.692;8.948;2023-07-22T13:46:40;2.30;;;2.10;;
72273;SDS011;60208;48.692;8.948;2023-07-22T13:49:06;1.80;;;1.70;;
72273;SDS011;60208;48.692;8.948;2023-07-22T13:51:31;2.78;;;1.70;;
72273;SDS011;60208;48.692;8.948;2023-07-22T13:53:57;2.33;;;1.70;;
72273;SDS011;60208;48.692;8.948;2023-07-22T13:56:23;1.73;;;1.63;;
72273;SDS011;60208;48.692;8.948;2023-07-22T13:58:49;2.95;;;2.03;;
72273;SDS011;60208;48.692;8.948;2023-07-22T14:01:14;2.63;;;1.70;;
72273;SDS011;60208;48.692;8.948;2023-07-22T14:03:40;3.47;;;1.92;;
72273;SDS011;60208;48.692;8.948;2023-07-22T14:06:05;2.20;;;2.00;;
72273;SDS011;60208;48.692;8.948;2023-07-22T14:08:31;3.30;;;2.13;;
72273;SDS011;60208;48.692;8.948;2023-07-22T14:10:56;3.15;;;2.30;;
72273;SDS011;60208;48.692;8.948;2023-07-22T14:13:21;4.63;;;2.60;;
72273;SDS011;60208;48.692;8.948;2023-07-22T14:15:47;2.60;;;2.40;;
72273;SDS011;60208;48.692;8.948;2023-07-22T14:18:12;3.00;;;2.10;;
72273;SDS011;60208;48.692;8.948;2023-07-22T14:20:42;2.72;;;2.13;;
72273;SDS011;60208;48.692;8.948;2023-07-22T14:23:10;2.40;;;2.10;;
72273;SDS011;60208;48.692;8.948;2023-07-22T14:25:36;4.65;;;2.10;;
72273;SDS011;60208;48.692;8.948;2023-07-22T14:28:01;2.65;;;2.05;;
72273;SDS011;60208;48.692;8.948;2023-07-22T14:30:27;4.03;;;2.55;;
72273;SDS011;60208;48.692;8.948;2023-07-22T14:32:52;4.53;;;2.38;;
72273;SDS011;60208;48.692;8.948;2023-07-22T14:35:18;3.28;;;2.00;;
72273;SDS011;60208;48.692;8.948;2023-07-22T14:37:43;2.95;;;2.60;;
72273;SDS011;60208;48.692;8.948;2023-07-22T14:40:10;6.07;;;2.83;;
72273;SDS011;60208;48.692;8.948;2023-07-22T14:42:35;3.05;;;2.55;;
72273;SDS011;60208;48.692;8.948;2023-07-22T14:45:01;5.20;;;2.75;;
72273;SDS011;60208;48.692;8.948;2023-07-22T14:47:26;3.75;;;2.70;;
72273;SDS011;60208;48.692;8.948;2023-07-22T14:49:52;3.58;;;2.42;;
72273;SDS011;60208;48.692;8.948;2023-07-22T14:52:17;4.88;;;2.50;;
72273;SDS011;60208;48.692;8.948;2023-07-22T14:54:42;2.30;;;2.10;;
72273;SDS011;60208;48.692;8.948;2023-07-22T14:57:08;2.90;;;2.30;;
72273;SDS011;60208;48.692;8.948;2023-07-22T14:59:33;3.33;;;2.42;;
72273;SDS011;60208;48.692;8.948;2023-07-22T15:01:59;3.05;;;2.20;;
72273;SDS011;60208;48.692;8.948;2023-07-22T15:04:24;4.63;;;2.67;;
72273;SDS011;60208;48.692;8.948;2023-07-22T15:06:50;3.58;;;2.42;;
72273;SDS011;60208;48.692;8.948;2023-07-22T15:09:15;3.42;;;2.58;;
72273;SDS011;60208;48.692;8.948;2023-07-22T15:11:41;2.63;;;2.22;;
72273;SDS011;60208;48.692;8.948;2023-07-22T15:14:06;4.15;;;2.33;;